createdAt,value
2018-03-25T00:02:08.296Z,99855
2018-03-25T00:04:36.474Z,99847
2018-03-25T00:07:04.651Z,99860
2018-03-25T00:09:32.833Z,99856
2018-03-25T00:12:01.058Z,99857
2018-03-25T00:14:29.243Z,99859
2018-03-25T00:16:57.525Z,99865
2018-03-25T00:19:25.719Z,99859
2018-03-25T00:21:54.675Z,99858
2018-03-25T00:24:22.886Z,99855
2018-03-25T00:26:51.094Z,99856
2018-03-25T00:29:19.340Z,99860
2018-03-25T00:31:47.582Z,99858
2018-03-25T00:34:15.810Z,99860
2018-03-25T00:36:44.009Z,99862
2018-03-25T00:39:12.251Z,99856
2018-03-25T00:41:40.522Z,99866
2018-03-25T00:44:08.699Z,99856
2018-03-25T00:46:37.039Z,99860
2018-03-25T00:49:05.220Z,99865
2018-03-25T00:51:34.182Z,99859
2018-03-25T00:54:02.383Z,99854
2018-03-25T00:56:31.371Z,99859
2018-03-25T00:59:00.313Z,99857
2018-03-25T01:01:28.490Z,99863
2018-03-25T01:03:56.687Z,99860
2018-03-25T01:06:24.970Z,99858
2018-03-25T01:08:53.167Z,99860
2018-03-25T01:11:22.297Z,99857
2018-03-25T01:13:51.250Z,99863
2018-03-25T01:16:20.207Z,99857
2018-03-25T01:18:48.407Z,99867
2018-03-25T01:21:17.375Z,99865
2018-03-25T01:23:45.564Z,99854
2018-03-25T01:26:14.561Z,99860
2018-03-25T01:28:43.622Z,99861
2018-03-25T01:31:11.950Z,99857
2018-03-25T01:33:40.164Z,99861
2018-03-25T01:36:08.346Z,99869
2018-03-25T01:38:36.554Z,99866
2018-03-25T01:41:05.511Z,99869
2018-03-25T01:43:33.707Z,99865
2018-03-25T01:46:01.895Z,99864
2018-03-25T01:48:30.932Z,99863
2018-03-25T01:50:59.181Z,99862
2018-03-25T01:53:27.377Z,99866
2018-03-25T01:55:55.608Z,99861
2018-03-25T01:58:24.542Z,99861
2018-03-25T02:00:52.730Z,99864
2018-03-25T02:03:20.926Z,99863
2018-03-25T02:05:49.205Z,99870
2018-03-25T02:08:17.394Z,99861
2018-03-25T02:10:46.388Z,99859
2018-03-25T02:13:15.375Z,99861
2018-03-25T02:15:44.454Z,99857
2018-03-25T02:18:12.752Z,99853
2018-03-25T02:20:41.699Z,99853
2018-03-25T02:23:09.887Z,99855
2018-03-25T02:25:38.089Z,99855
2018-03-25T02:28:07.027Z,99857
2018-03-25T02:30:35.230Z,99859
2018-03-25T02:33:03.477Z,99860
2018-03-25T02:35:31.639Z,99859
2018-03-25T02:37:59.797Z,99870
2018-03-25T02:40:27.972Z,99863
2018-03-25T02:42:56.161Z,99870
2018-03-25T02:45:24.403Z,99870
2018-03-25T02:47:52.632Z,99870
2018-03-25T02:50:20.857Z,99870
2018-03-25T02:52:49.027Z,99865
2018-03-25T02:55:17.291Z,99867
2018-03-25T02:57:46.252Z,99858
2018-03-25T03:00:14.430Z,99856
2018-03-25T03:02:42.599Z,99861
2018-03-25T03:05:10.922Z,99862
2018-03-25T03:07:39.099Z,99866
2018-03-25T03:10:07.270Z,99871
2018-03-25T03:12:35.440Z,99876
2018-03-25T03:15:03.619Z,99873
2018-03-25T03:17:31.797Z,99871
2018-03-25T03:19:59.983Z,99875
2018-03-25T03:22:28.164Z,99882
2018-03-25T03:24:56.391Z,99874
2018-03-25T03:27:25.475Z,99869
2018-03-25T03:29:53.653Z,99880
2018-03-25T03:32:22.607Z,99886
2018-03-25T03:34:50.860Z,99883
2018-03-25T03:37:19.102Z,99884
2018-03-25T03:39:48.008Z,99887
2018-03-25T03:42:16.206Z,99890
2018-03-25T03:44:44.401Z,99896
2018-03-25T03:47:12.641Z,99896
2018-03-25T03:49:40.822Z,99892
2018-03-25T03:52:08.999Z,99897
2018-03-25T03:54:37.272Z,99897
2018-03-25T03:57:06.168Z,99901
2018-03-25T03:59:34.349Z,99904
2018-03-25T04:02:02.530Z,99907
2018-03-25T04:04:30.771Z,99912
2018-03-25T04:06:58.963Z,99904
2018-03-25T04:09:27.212Z,99903
2018-03-25T04:11:55.413Z,99898
2018-03-25T04:14:23.622Z,99903
2018-03-25T04:16:51.814Z,99906
2018-03-25T04:19:20.752Z,99904
2018-03-25T04:21:48.954Z,99896
2018-03-25T04:24:17.144Z,99903
2018-03-25T04:26:46.082Z,99901
2018-03-25T04:29:14.413Z,99903
2018-03-25T04:31:42.603Z,99906
2018-03-25T04:34:10.825Z,99897
2018-03-25T04:36:39.019Z,99900
2018-03-25T04:39:07.211Z,99902
2018-03-25T04:41:36.154Z,99894
2018-03-25T04:44:04.338Z,99891
2018-03-25T04:46:32.562Z,99898
2018-03-25T04:49:00.769Z,99893
2018-03-25T04:51:28.933Z,99886
2018-03-25T04:53:57.154Z,99897
2018-03-25T04:56:25.337Z,99894
2018-03-25T04:58:54.307Z,99894
2018-03-25T05:01:22.480Z,99895
2018-03-25T05:03:50.828Z,99892
2018-03-25T05:06:19.062Z,99896
2018-03-25T05:08:48.045Z,99894
2018-03-25T05:11:17.006Z,99896
2018-03-25T05:13:45.222Z,99886
2018-03-25T05:16:14.237Z,99894
2018-03-25T05:18:42.463Z,99896
2018-03-25T05:21:10.708Z,99896
2018-03-25T05:23:38.888Z,99895
2018-03-25T05:26:07.079Z,99893
2018-03-25T05:28:35.319Z,99898
2018-03-25T05:31:03.624Z,99898
2018-03-25T05:33:32.026Z,99902
2018-03-25T05:36:01.062Z,99903
2018-03-25T05:38:29.243Z,99898
2018-03-25T05:40:57.550Z,99902
2018-03-25T05:43:25.728Z,99906
2018-03-25T05:45:53.950Z,99899
2018-03-25T05:48:22.154Z,99914
2018-03-25T05:50:50.411Z,99910
2018-03-25T05:53:18.681Z,99913
2018-03-25T05:55:46.877Z,99916
2018-03-25T05:58:15.887Z,99920
2018-03-25T06:00:44.061Z,99924
2018-03-25T06:03:12.291Z,99929
2018-03-25T06:05:40.485Z,99927
2018-03-25T06:08:08.721Z,99931
2018-03-25T06:10:37.640Z,99935
2018-03-25T06:13:05.835Z,99941
2018-03-25T06:15:34.012Z,99937
2018-03-25T06:18:02.208Z,99936
2018-03-25T06:20:30.476Z,99937
2018-03-25T06:22:58.641Z,99939
2018-03-25T06:25:26.844Z,99935
2018-03-25T06:27:55.838Z,99941
2018-03-25T06:30:24.864Z,99944
2018-03-25T06:32:53.085Z,99950
2018-03-25T06:35:22.041Z,99951
2018-03-25T06:37:50.210Z,99963
2018-03-25T06:40:18.412Z,99960
2018-03-25T06:42:46.587Z,99967
2018-03-25T06:45:14.773Z,99970
2018-03-25T06:47:43.909Z,99975
2018-03-25T06:50:12.103Z,99971
2018-03-25T06:52:40.283Z,99976
2018-03-25T06:55:08.537Z,99969
2018-03-25T06:57:36.802Z,99977
2018-03-25T07:00:05.046Z,99983
2018-03-25T07:02:33.345Z,99966
2018-03-25T07:05:01.619Z,99975
2018-03-25T07:07:29.944Z,99976
2018-03-25T07:09:58.130Z,99977
2018-03-25T07:12:26.407Z,99978
2018-03-25T07:14:54.651Z,99983
2018-03-25T07:17:22.867Z,99982
2018-03-25T07:19:51.905Z,99993
2018-03-25T07:22:20.267Z,99992
2018-03-25T07:24:48.506Z,99997
2018-03-25T07:27:16.762Z,99998
2018-03-25T07:29:45.027Z,100006
2018-03-25T07:32:13.250Z,100002
2018-03-25T07:34:42.229Z,99999
2018-03-25T07:37:11.338Z,100004
2018-03-25T07:39:40.327Z,100000
2018-03-25T07:42:09.282Z,100005
2018-03-25T07:44:37.486Z,100011
2018-03-25T07:47:05.698Z,100008
2018-03-25T07:49:33.941Z,100012
2018-03-25T07:52:02.212Z,100008
2018-03-25T07:54:30.437Z,100019
2018-03-25T07:56:58.728Z,100014
2018-03-25T07:59:26.995Z,100037
2018-03-25T08:01:55.205Z,100024
2018-03-25T08:04:23.378Z,100027
2018-03-25T08:06:52.418Z,100017
2018-03-25T08:09:20.645Z,100028
2018-03-25T08:11:49.621Z,100029
2018-03-25T08:14:17.872Z,100024
2018-03-25T08:16:46.190Z,100021
2018-03-25T08:19:15.136Z,100018
2018-03-25T08:21:43.318Z,100021
2018-03-25T08:24:11.575Z,100017
2018-03-25T08:26:39.756Z,100024
2018-03-25T08:29:07.931Z,100034
2018-03-25T08:31:36.117Z,100030
2018-03-25T08:34:04.368Z,100032
2018-03-25T08:36:32.571Z,100037
2018-03-25T08:39:00.778Z,100032
2018-03-25T08:41:29.010Z,100037
2018-03-25T08:43:57.208Z,100040
2018-03-25T08:46:25.537Z,100038
2018-03-25T08:48:53.749Z,100039
2018-03-25T08:51:21.975Z,100039
2018-03-25T08:53:50.348Z,100043
2018-03-25T08:56:18.545Z,100037
2018-03-25T08:58:46.835Z,100039
2018-03-25T09:01:15.105Z,100038
2018-03-25T09:03:43.353Z,100044
2018-03-25T09:06:11.561Z,100046
2018-03-25T09:08:39.797Z,100037
2018-03-25T09:11:08.012Z,100049
2018-03-25T09:13:36.241Z,100051
2018-03-25T09:16:04.466Z,100044
2018-03-25T09:18:32.678Z,100048
2018-03-25T09:21:00.876Z,100046
2018-03-25T09:23:29.126Z,100054
2018-03-25T09:25:57.488Z,100048
2018-03-25T09:28:26.627Z,100053
2018-03-25T09:30:54.856Z,100060
2018-03-25T09:33:24.079Z,100049
2018-03-25T09:35:52.286Z,100051
2018-03-25T09:38:20.474Z,100049
2018-03-25T09:40:48.774Z,100060
2018-03-25T09:43:17.457Z,100055
2018-03-25T09:45:46.486Z,100057
2018-03-25T09:48:14.985Z,100062
2018-03-25T09:50:43.296Z,100062
2018-03-25T09:53:11.519Z,100068
2018-03-25T09:55:39.788Z,100070
2018-03-25T09:58:23.037Z,100068
2018-03-25T10:03:34.218Z,100073
2018-03-25T10:06:02.935Z,100043
2018-03-25T10:08:31.276Z,100077
2018-03-25T10:13:59.369Z,100067
2018-03-25T10:16:41.579Z,100074
2018-03-25T10:19:30.184Z,100081
2018-03-25T10:22:11.583Z,100067
2018-03-25T10:24:39.827Z,100075
2018-03-25T10:27:09.086Z,100068
2018-03-25T10:29:50.941Z,100078
2018-03-25T10:32:19.972Z,100083
2018-03-25T10:35:01.405Z,100077
2018-03-25T10:37:29.713Z,100074
2018-03-25T10:39:58.059Z,100083
2018-03-25T10:45:47.739Z,100074
2018-03-25T10:48:33.172Z,100080
2018-03-25T10:51:01.549Z,100073
2018-03-25T10:53:29.906Z,100074
2018-03-25T10:55:58.086Z,100076
2018-03-25T10:58:26.337Z,100069
2018-03-25T11:00:55.296Z,100078
2018-03-25T11:03:23.518Z,100077
2018-03-25T11:05:51.747Z,100073
2018-03-25T11:08:22.607Z,100081
2018-03-25T11:10:51.597Z,100079
2018-03-25T11:13:19.868Z,100081
2018-03-25T11:15:48.088Z,100084
2018-03-25T11:18:16.512Z,100073
2018-03-25T11:20:46.224Z,100083
2018-03-25T11:23:14.587Z,100086
2018-03-25T11:25:42.803Z,100082
2018-03-25T11:28:11.002Z,100090
2018-03-25T11:30:39.360Z,100088
2018-03-25T11:33:08.377Z,100096
2018-03-25T11:35:36.587Z,100090
2018-03-25T11:38:04.794Z,100087
2018-03-25T11:40:33.733Z,100090
2018-03-25T11:43:08.067Z,100084
2018-03-25T11:45:36.416Z,100091
2018-03-25T11:48:04.686Z,100092
2018-03-25T11:50:32.896Z,100089
2018-03-25T11:53:01.119Z,100091
2018-03-25T11:55:29.309Z,100102
2018-03-25T11:57:57.508Z,100098
2018-03-25T12:00:25.778Z,100101
2018-03-25T12:02:53.979Z,100099
2018-03-25T12:05:22.300Z,100094
2018-03-25T12:07:50.576Z,100100
2018-03-25T12:10:18.835Z,100091
2018-03-25T12:12:47.848Z,100098
2018-03-25T12:15:16.070Z,100097
2018-03-25T12:17:44.246Z,100108
2018-03-25T12:20:12.448Z,100101
2018-03-25T12:22:40.753Z,100096
2018-03-25T12:25:08.991Z,100093
2018-03-25T12:27:37.198Z,100098
2018-03-25T12:30:05.394Z,100104
2018-03-25T12:32:33.619Z,100106
2018-03-25T12:35:02.738Z,100102
2018-03-25T12:37:31.043Z,100105
2018-03-25T12:39:59.285Z,100101
2018-03-25T12:42:27.472Z,100103
2018-03-25T12:44:55.686Z,100105
2018-03-25T12:47:24.047Z,100094
2018-03-25T12:49:52.413Z,100107
2018-03-25T12:52:21.433Z,100098
2018-03-25T12:54:50.410Z,100100
2018-03-25T12:57:18.872Z,100098
2018-03-25T12:59:47.159Z,100106
2018-03-25T13:02:15.360Z,100096
2018-03-25T13:04:43.615Z,100101
2018-03-25T13:07:11.951Z,100099
2018-03-25T13:09:41.120Z,100108
2018-03-25T13:12:10.131Z,100111
2018-03-25T13:14:38.381Z,100099
2018-03-25T13:17:06.739Z,100106
2018-03-25T13:19:35.115Z,100108
2018-03-25T13:22:03.355Z,100097
2018-03-25T13:24:31.612Z,100110
2018-03-25T13:26:59.821Z,100102
2018-03-25T13:29:28.069Z,100104
2018-03-25T13:31:56.422Z,100110
2018-03-25T13:34:25.546Z,100106
2018-03-25T13:36:54.459Z,100107
2018-03-25T13:39:22.681Z,100110
2018-03-25T13:41:50.921Z,100108
2018-03-25T13:44:19.130Z,100107
2018-03-25T13:46:47.371Z,100109
2018-03-25T13:49:15.726Z,100110
2018-03-25T13:51:44.045Z,100107
2018-03-25T13:54:12.322Z,100108
2018-03-25T13:56:41.320Z,100115
2018-03-25T13:59:10.307Z,100110
2018-03-25T14:01:39.300Z,100100
2018-03-25T14:04:08.284Z,100114
2018-03-25T14:06:37.277Z,100104
2018-03-25T14:09:06.251Z,100109
2018-03-25T14:11:34.437Z,100099
2018-03-25T14:14:03.454Z,100107
2018-03-25T14:16:32.436Z,100105
2018-03-25T14:19:01.426Z,100108
2018-03-25T14:21:30.458Z,100104
2018-03-25T14:23:58.696Z,100107
2018-03-25T14:26:27.654Z,100113
2018-03-25T14:28:55.883Z,100107
2018-03-25T14:31:24.080Z,100104
2018-03-25T14:33:52.275Z,100113
2018-03-25T14:36:20.498Z,100109
2018-03-25T14:38:48.706Z,100106
2018-03-25T14:41:16.913Z,100116
2018-03-25T14:43:45.125Z,100114
2018-03-25T14:46:13.318Z,100111
2018-03-25T14:48:41.551Z,100107
2018-03-25T14:51:10.573Z,100102
2018-03-25T14:53:38.808Z,100109
2018-03-25T14:56:07.759Z,100106
2018-03-25T14:58:35.956Z,100099
2018-03-25T15:01:04.138Z,100112
2018-03-25T15:03:32.336Z,100110
2018-03-25T15:06:01.373Z,100117
2018-03-25T15:08:29.595Z,100114
2018-03-25T15:10:58.625Z,100115
2018-03-25T15:13:26.840Z,100109
2018-03-25T15:15:55.157Z,100104
2018-03-25T15:18:23.506Z,100107
2018-03-25T15:20:51.709Z,100112
2018-03-25T15:23:19.916Z,100114
2018-03-25T15:25:48.139Z,100121
2018-03-25T15:28:17.039Z,100112
2018-03-25T15:30:45.292Z,100112
2018-03-25T15:33:14.322Z,100116
2018-03-25T15:35:42.638Z,100118
2018-03-25T15:38:11.006Z,100124
2018-03-25T15:40:39.247Z,100110
2018-03-25T15:43:08.176Z,100113
2018-03-25T15:45:36.455Z,100116
2018-03-25T15:48:04.598Z,100115
2018-03-25T15:50:32.907Z,100109
2018-03-25T15:53:01.133Z,100110
2018-03-25T15:55:29.363Z,100115
2018-03-25T15:57:57.575Z,100113
2018-03-25T16:00:25.854Z,100118
2018-03-25T16:02:54.082Z,100119
2018-03-25T16:05:22.359Z,100124
2018-03-25T16:07:50.588Z,100117
2018-03-25T16:10:19.886Z,100125
2018-03-25T16:12:48.383Z,100125
2018-03-25T16:15:17.068Z,100125
2018-03-25T16:17:45.331Z,100130
2018-03-25T16:20:13.627Z,100126
2018-03-25T16:22:41.872Z,100133
2018-03-25T16:25:10.107Z,100132
2018-03-25T16:27:38.345Z,100127
2018-03-25T16:30:06.555Z,100135
2018-03-25T16:32:34.787Z,100132
2018-03-25T16:35:03.022Z,100139
2018-03-25T16:37:32.048Z,100139
2018-03-25T16:40:00.360Z,100143
2018-03-25T16:42:28.543Z,100147
2018-03-25T16:44:56.771Z,100146
2018-03-25T16:47:24.964Z,100149
2018-03-25T16:49:53.307Z,100149
2018-03-25T16:52:21.845Z,100153
2018-03-25T16:54:50.024Z,100165
2018-03-25T16:57:18.311Z,100153
2018-03-25T16:59:46.539Z,100147
2018-03-25T17:02:15.514Z,100151
2018-03-25T17:04:43.815Z,100154
2018-03-25T17:07:12.048Z,100152
2018-03-25T17:09:40.903Z,100159
2018-03-25T17:12:09.132Z,100167
2018-03-25T17:14:37.428Z,100168
2018-03-25T17:17:05.682Z,100169
2018-03-25T17:19:33.932Z,100169
2018-03-25T17:22:02.874Z,100173
2018-03-25T17:24:31.049Z,100177
2018-03-25T17:26:59.350Z,100179
2018-03-25T17:29:27.583Z,100175
2018-03-25T17:31:55.858Z,100180
2018-03-25T17:34:24.382Z,100180
2018-03-25T17:36:52.680Z,100178
2018-03-25T17:39:22.945Z,99995
2018-03-25T17:41:51.385Z,100179
2018-03-25T17:44:20.571Z,100183
2018-03-25T17:46:49.020Z,100180
2018-03-25T17:49:17.277Z,100188
2018-03-25T17:51:49.254Z,100184
2018-03-25T17:54:36.912Z,100185
2018-03-25T17:57:05.285Z,100196
2018-03-25T17:59:34.369Z,100186
2018-03-25T18:02:02.681Z,100194
2018-03-25T18:04:31.162Z,100187
2018-03-25T18:06:59.634Z,100194
2018-03-25T18:09:28.480Z,100197
2018-03-25T18:11:57.510Z,100199
2018-03-25T18:14:26.681Z,100204
2018-03-25T18:16:54.986Z,100202
2018-03-25T18:19:23.262Z,100205
2018-03-25T18:21:51.456Z,100219
2018-03-25T18:24:19.856Z,100209
2018-03-25T18:26:48.037Z,100225
2018-03-25T18:29:16.312Z,100220
2018-03-25T18:31:44.516Z,100215
2018-03-25T18:34:13.603Z,100223
2018-03-25T18:36:41.840Z,100227
2018-03-25T18:39:10.085Z,100228
2018-03-25T18:41:38.410Z,100216
2018-03-25T18:44:06.621Z,100217
2018-03-25T18:46:35.591Z,100221
2018-03-25T18:49:03.782Z,100220
2018-03-25T18:51:32.816Z,100225
2018-03-25T18:54:01.010Z,100213
2018-03-25T18:56:30.088Z,100219
2018-03-25T18:58:58.287Z,100230
2018-03-25T19:01:26.483Z,100232
2018-03-25T19:03:54.692Z,100225
2018-03-25T19:06:22.873Z,100231
2018-03-25T19:08:51.101Z,100235
2018-03-25T19:11:19.364Z,100233
2018-03-25T19:13:49.754Z,100228
2018-03-25T19:16:18.054Z,100232
2018-03-25T19:18:46.252Z,100234
2018-03-25T19:21:14.477Z,100241
2018-03-25T19:23:42.745Z,100238
2018-03-25T19:26:10.917Z,100237
2018-03-25T19:28:39.205Z,100248
2018-03-25T19:31:07.402Z,100236
2018-03-25T19:33:37.176Z,100240
2018-03-25T19:36:05.495Z,100238
2018-03-25T19:38:33.674Z,100235
2018-03-25T19:41:02.128Z,100235
2018-03-25T19:43:30.345Z,100234
2018-03-25T19:45:59.379Z,100233
2018-03-25T19:48:27.605Z,100244
2018-03-25T19:50:55.815Z,100242
2018-03-25T19:53:24.015Z,100243
2018-03-25T19:55:52.200Z,100239
2018-03-25T19:58:20.413Z,100244
2018-03-25T20:00:49.361Z,100242
2018-03-25T20:03:17.583Z,100244
2018-03-25T20:05:45.778Z,100242
2018-03-25T20:08:13.974Z,100243
2018-03-25T20:10:42.201Z,100242
2018-03-25T20:13:11.145Z,100247
2018-03-25T20:15:39.384Z,100247
2018-03-25T20:18:07.673Z,100248
2018-03-25T20:20:35.896Z,100239
2018-03-25T20:23:04.086Z,100245
2018-03-25T20:25:33.035Z,100246
2018-03-25T20:28:01.240Z,100245
2018-03-25T20:30:29.429Z,100252
2018-03-25T20:32:58.387Z,100256
2018-03-25T20:35:26.638Z,100270
2018-03-25T20:37:54.866Z,100266
2018-03-25T20:40:23.211Z,100267
2018-03-25T20:42:51.492Z,100266
2018-03-25T20:45:19.898Z,100269
2018-03-25T20:47:48.867Z,100270
2018-03-25T20:50:17.071Z,100275
2018-03-25T20:52:46.122Z,100274
2018-03-25T20:55:15.133Z,100271
2018-03-25T20:57:43.315Z,100273
2018-03-25T21:00:12.326Z,100268
2018-03-25T21:02:40.506Z,100272
2018-03-25T21:05:08.876Z,100281
2018-03-25T21:07:37.115Z,100276
2018-03-25T21:10:05.580Z,100283
2018-03-25T21:12:33.775Z,100280
2018-03-25T21:15:02.076Z,100281
2018-03-25T21:17:30.350Z,100283
2018-03-25T21:19:59.344Z,100289
2018-03-25T21:22:27.554Z,100282
2018-03-25T21:24:55.760Z,100285
2018-03-25T21:27:24.738Z,100295
2018-03-25T21:29:52.970Z,100291
2018-03-25T21:32:21.176Z,100288
2018-03-25T21:34:49.425Z,100292
2018-03-25T21:37:17.646Z,100292
2018-03-25T21:39:45.845Z,100293
2018-03-25T21:42:14.882Z,100296
2018-03-25T21:44:43.077Z,100291
2018-03-25T21:47:11.288Z,100293
2018-03-25T21:49:42.857Z,100292
2018-03-25T21:52:11.095Z,100295
2018-03-25T21:54:39.371Z,100293
2018-03-25T21:57:07.584Z,100290
2018-03-25T21:59:37.295Z,100291
2018-03-25T22:02:05.604Z,100289
2018-03-25T22:04:33.795Z,100289
2018-03-25T22:07:02.820Z,100292
2018-03-25T22:09:31.047Z,100285
2018-03-25T22:11:59.422Z,100297
2018-03-25T22:14:27.629Z,100293
2018-03-25T22:16:56.713Z,100290
2018-03-25T22:19:24.965Z,100296
2018-03-25T22:21:53.195Z,100296
2018-03-25T22:24:21.412Z,100295
2018-03-25T22:26:49.576Z,100289
2018-03-25T22:29:18.543Z,100294
2018-03-25T22:31:46.715Z,100300
2018-03-25T22:34:14.899Z,100298
2018-03-25T22:36:43.119Z,100290
2018-03-25T22:39:11.328Z,100290
2018-03-25T22:41:39.525Z,100292
2018-03-25T22:44:07.794Z,100295
2018-03-25T22:46:36.042Z,100291
2018-03-25T22:49:05.051Z,100292
2018-03-25T22:51:33.335Z,100292
2018-03-25T22:54:01.564Z,100289
2018-03-25T22:56:30.533Z,100295
2018-03-25T22:58:58.791Z,100296
2018-03-25T23:01:27.487Z,100295
2018-03-25T23:03:55.671Z,100300
2018-03-25T23:06:23.951Z,100298
2018-03-25T23:08:52.143Z,100298
2018-03-25T23:11:21.169Z,100299
2018-03-25T23:13:49.451Z,100296
2018-03-25T23:16:17.676Z,100298
2018-03-25T23:18:45.904Z,100293
2018-03-25T23:21:14.183Z,100295
2018-03-25T23:23:42.419Z,100287
2018-03-25T23:26:11.383Z,100297
2018-03-25T23:28:39.578Z,100288
2018-03-25T23:31:08.566Z,100288
2018-03-25T23:33:37.533Z,100286
2018-03-25T23:36:05.709Z,100297
2018-03-25T23:38:33.902Z,100292
2018-03-25T23:41:02.988Z,100295
2018-03-25T23:43:31.271Z,100296
2018-03-25T23:45:59.483Z,100290
2018-03-25T23:48:27.817Z,100296
2018-03-25T23:50:56.032Z,100290
2018-03-25T23:53:24.219Z,100291
2018-03-25T23:55:52.547Z,100293
2018-03-25T23:58:20.752Z,100291
